createdAt,value
2022-10-17T00:00:40.486Z,8.82
2022-10-17T00:03:08.118Z,7.50
2022-10-17T00:05:35.685Z,9.20
2022-10-17T00:08:03.067Z,9.18
2022-10-17T00:10:30.425Z,6.88
2022-10-17T00:12:57.795Z,8.23
2022-10-17T00:15:25.223Z,10.75
2022-10-17T00:17:52.542Z,7.78
2022-10-17T00:20:20.073Z,9.75
2022-10-17T00:22:47.508Z,7.03
2022-10-17T00:25:14.908Z,9.20
2022-10-17T00:27:42.715Z,6.20
2022-10-17T00:30:12.234Z,6.53
2022-10-17T00:32:39.756Z,6.60
2022-10-17T00:35:07.682Z,6.20
2022-10-17T00:37:35.323Z,6.57
2022-10-17T00:40:02.650Z,7.57
2022-10-17T00:42:30.397Z,7.25
2022-10-17T00:45:13.244Z,6.45
2022-10-17T00:47:46.211Z,6.78
2022-10-17T00:50:14.184Z,9.47
2022-10-17T00:52:41.906Z,8.43
2022-10-17T00:55:12.805Z,8.38
2022-10-17T00:57:40.551Z,9.25
2022-10-17T01:00:08.999Z,6.22
2022-10-17T01:02:36.796Z,7.82
2022-10-17T01:05:04.280Z,8.23
2022-10-17T01:07:34.931Z,7.72
2022-10-17T01:10:06.047Z,6.97
2022-10-17T01:12:53.177Z,7.53
2022-10-17T01:15:23.273Z,10.17
2022-10-17T01:17:50.823Z,8.00
2022-10-17T01:20:36.399Z,6.13
2022-10-17T01:23:12.835Z,7.33
2022-10-17T01:25:43.519Z,7.17
2022-10-17T01:28:26.180Z,9.10
2022-10-17T01:31:00.781Z,6.53
2022-10-17T01:33:41.874Z,8.70
2022-10-17T01:36:17.973Z,6.60
2022-10-17T01:38:48.584Z,6.30
2022-10-17T01:41:15.892Z,9.17
2022-10-17T01:44:05.918Z,8.53
2022-10-17T01:46:36.875Z,8.47
2022-10-17T01:49:05.781Z,8.27
2022-10-17T01:51:45.066Z,7.23
2022-10-17T01:54:15.681Z,7.47
2022-10-17T01:56:44.188Z,6.67
2022-10-17T01:59:18.191Z,8.83
2022-10-17T02:01:47.240Z,7.47
2022-10-17T02:04:16.489Z,8.43
2022-10-17T02:06:43.978Z,7.03
2022-10-17T02:09:31.996Z,7.60
2022-10-17T02:12:02.557Z,7.87
2022-10-17T02:14:53.326Z,7.17
2022-10-17T02:17:28.342Z,6.70
2022-10-17T02:19:58.888Z,7.63
2022-10-17T02:22:48.509Z,7.33
2022-10-17T02:25:16.152Z,7.30
2022-10-17T02:27:43.962Z,7.93
2022-10-17T02:30:33.005Z,7.20
2022-10-17T02:33:01.844Z,8.30
2022-10-17T02:35:31.722Z,6.73
2022-10-17T02:38:00.713Z,8.37
2022-10-17T02:40:30.513Z,8.90
2022-10-17T02:42:59.886Z,8.07
2022-10-17T02:45:35.796Z,9.07
2022-10-17T02:48:08.221Z,8.67
2022-10-17T02:50:41.652Z,6.57
2022-10-17T02:53:15.218Z,11.47
2022-10-17T02:55:46.874Z,7.03
2022-10-17T02:58:21.108Z,7.80
2022-10-17T03:00:48.910Z,7.10
2022-10-17T03:03:20.647Z,7.60
2022-10-17T03:05:48.030Z,10.30
2022-10-17T03:08:15.352Z,7.97
2022-10-17T03:10:42.717Z,7.87
2022-10-17T03:13:10.221Z,8.03
2022-10-17T03:15:40.655Z,9.30
2022-10-17T03:18:08.116Z,7.67
2022-10-17T03:20:36.029Z,7.30
2022-10-17T03:23:03.374Z,7.90
2022-10-17T03:25:31.503Z,9.20
2022-10-17T03:28:00.572Z,8.27
2022-10-17T03:30:28.338Z,7.30
2022-10-17T03:32:55.776Z,6.53
2022-10-17T03:35:23.155Z,8.83
2022-10-17T03:37:51.331Z,6.70
2022-10-17T03:40:21.159Z,7.37
2022-10-17T03:42:48.553Z,7.10
2022-10-17T03:45:15.901Z,6.87
2022-10-17T03:47:44.665Z,6.93
2022-10-17T03:50:12.435Z,9.47
2022-10-17T03:52:40.654Z,9.20
2022-10-17T03:55:09.258Z,8.87
2022-10-17T03:57:37.390Z,7.37
2022-10-17T04:00:06.568Z,10.20
2022-10-17T04:02:41.657Z,11.30
2022-10-17T04:05:13.149Z,7.03
2022-10-17T04:07:41.587Z,7.47
2022-10-17T04:10:11.028Z,6.23
2022-10-17T04:12:39.940Z,6.67
2022-10-17T04:15:07.689Z,8.33
2022-10-17T04:17:38.119Z,7.60
2022-10-17T04:20:06.734Z,7.40
2022-10-17T04:22:34.832Z,7.27
2022-10-17T04:25:02.503Z,8.73
2022-10-17T04:27:43.587Z,9.07
2022-10-17T04:30:11.329Z,6.10
2022-10-17T04:32:39.414Z,8.87
2022-10-17T04:35:14.208Z,7.00
2022-10-17T04:37:46.608Z,5.90
2022-10-17T04:40:18.749Z,6.97
2022-10-17T04:42:46.794Z,6.10
2022-10-17T04:45:18.276Z,8.33
2022-10-17T04:47:46.981Z,8.93
2022-10-17T04:50:14.871Z,7.87
2022-10-17T04:52:42.473Z,5.90
2022-10-17T04:55:09.974Z,7.63
2022-10-17T04:57:37.497Z,7.90
2022-10-17T05:00:12.760Z,7.07
2022-10-17T05:02:49.072Z,6.00
2022-10-17T05:05:16.566Z,6.03
2022-10-17T05:07:46.283Z,5.23
2022-10-17T05:10:18.483Z,8.07
2022-10-17T05:12:48.972Z,7.17
2022-10-17T05:15:18.430Z,5.20
2022-10-17T05:17:46.005Z,6.00
2022-10-17T05:20:13.816Z,5.67
2022-10-17T05:22:42.360Z,7.50
2022-10-17T05:25:11.751Z,6.23
2022-10-17T05:27:39.101Z,5.93
2022-10-17T05:30:07.220Z,5.90
2022-10-17T05:32:36.579Z,6.70
2022-10-17T05:35:05.106Z,7.70
2022-10-17T05:37:33.494Z,6.17
2022-10-17T05:40:03.206Z,7.47
2022-10-17T05:42:31.957Z,6.13
2022-10-17T05:44:59.663Z,8.97
2022-10-17T05:47:28.012Z,7.07
2022-10-17T05:49:55.584Z,7.53
2022-10-17T05:52:32.843Z,7.67
2022-10-17T05:55:11.134Z,7.67
2022-10-17T05:57:39.739Z,5.90
2022-10-17T06:00:11.597Z,4.43
2022-10-17T06:02:54.194Z,7.43
2022-10-17T06:05:23.127Z,7.60
2022-10-17T06:07:52.614Z,4.63
2022-10-17T06:10:21.390Z,6.80
2022-10-17T06:12:49.160Z,5.43
2022-10-17T06:15:16.636Z,8.60
2022-10-17T06:17:48.410Z,5.60
2022-10-17T06:20:15.774Z,5.37
2022-10-17T06:22:44.262Z,7.33
2022-10-17T06:25:17.407Z,6.73
2022-10-17T06:27:45.012Z,6.30
2022-10-17T06:30:13.140Z,8.13
2022-10-17T06:32:41.395Z,7.00
2022-10-17T06:35:08.953Z,8.20
2022-10-17T06:37:37.920Z,9.73
2022-10-17T06:40:10.471Z,9.27
2022-10-17T06:42:41.883Z,10.30
2022-10-17T06:45:24.894Z,17.47
2022-10-17T06:48:10.822Z,17.60
2022-10-17T06:50:43.739Z,17.67
2022-10-17T06:53:21.995Z,16.57
2022-10-17T06:56:10.381Z,17.33
2022-10-17T06:59:00.514Z,15.20
2022-10-17T07:01:34.830Z,11.93
2022-10-17T07:04:04.114Z,9.43
2022-10-17T07:06:32.184Z,10.87
2022-10-17T07:09:06.920Z,8.27
2022-10-17T07:11:36.702Z,8.47
2022-10-17T07:14:04.138Z,8.47
2022-10-17T07:16:31.564Z,8.57
2022-10-17T07:19:08.336Z,7.87
2022-10-17T07:21:39.306Z,8.40
2022-10-17T07:24:08.867Z,8.90
2022-10-17T07:26:36.543Z,7.97
2022-10-17T07:29:06.462Z,9.60
2022-10-17T07:31:48.973Z,8.80
2022-10-17T07:34:16.727Z,8.00
2022-10-17T07:36:45.170Z,6.90
2022-10-17T07:39:14.382Z,6.47
2022-10-17T07:41:41.782Z,7.00
2022-10-17T07:44:09.443Z,7.93
2022-10-17T07:46:46.781Z,7.60
2022-10-17T07:49:14.265Z,7.47
2022-10-17T07:51:42.202Z,8.33
2022-10-17T07:54:09.699Z,8.80
2022-10-17T07:56:37.083Z,7.50
2022-10-17T07:59:08.293Z,7.83
2022-10-17T08:01:37.155Z,7.23
2022-10-17T08:04:04.513Z,8.20
2022-10-17T08:06:31.878Z,7.03
2022-10-17T08:08:59.701Z,7.60
2022-10-17T08:11:27.112Z,7.63
2022-10-17T08:13:54.473Z,8.13
2022-10-17T08:16:21.844Z,9.17
2022-10-17T08:18:49.279Z,12.00
2022-10-17T08:21:16.613Z,10.83
2022-10-17T08:23:43.962Z,8.37
2022-10-17T08:26:13.463Z,8.53
2022-10-17T08:28:41.300Z,7.03
2022-10-17T08:31:12.689Z,8.63
2022-10-17T08:33:40.107Z,10.70
2022-10-17T08:36:08.076Z,9.80
2022-10-17T08:38:36.939Z,7.00
2022-10-17T08:41:08.074Z,8.43
2022-10-17T08:43:50.770Z,8.00
2022-10-17T08:46:18.906Z,8.10
2022-10-17T08:48:47.773Z,7.40
2022-10-17T08:51:26.789Z,8.00
2022-10-17T08:53:57.023Z,7.97
2022-10-17T08:56:44.117Z,7.37
2022-10-17T08:59:12.455Z,6.50
2022-10-17T09:01:42.893Z,6.83
2022-10-17T09:04:39.773Z,7.20
2022-10-17T09:07:22.073Z,8.37
2022-10-17T09:09:53.946Z,8.87
2022-10-17T09:12:38.796Z,8.40
2022-10-17T09:15:18.494Z,8.07
2022-10-17T09:17:54.658Z,9.37
2022-10-17T09:20:22.068Z,8.20
2022-10-17T09:22:52.426Z,8.83
2022-10-17T09:25:21.555Z,11.20
2022-10-17T09:27:50.974Z,10.30
2022-10-17T09:30:44.850Z,9.37
2022-10-17T09:33:23.246Z,9.10
2022-10-17T09:36:01.191Z,10.43
2022-10-17T09:38:35.379Z,12.33
2022-10-17T09:41:39.251Z,10.63
2022-10-17T09:44:09.104Z,10.67
2022-10-17T09:46:37.934Z,10.80
2022-10-17T09:49:17.227Z,9.20
2022-10-17T09:51:45.345Z,9.17
2022-10-17T09:54:22.889Z,8.97
2022-10-17T09:56:59.224Z,9.87
2022-10-17T09:59:34.589Z,9.17
2022-10-17T10:02:09.125Z,9.60
2022-10-17T10:04:47.039Z,9.45
2022-10-17T10:07:29.143Z,10.00
2022-10-17T10:09:57.421Z,12.32
2022-10-17T10:12:26.638Z,12.27
2022-10-17T10:14:55.432Z,10.25
2022-10-17T10:17:41.729Z,10.27
2022-10-17T10:20:27.074Z,9.10
2022-10-17T10:23:14.753Z,8.50
2022-10-17T10:25:55.970Z,9.82
2022-10-17T10:28:33.805Z,9.15
2022-10-17T10:31:04.619Z,9.10
2022-10-17T10:33:33.005Z,8.73
2022-10-17T10:36:02.085Z,8.70
2022-10-17T10:38:30.179Z,8.32
2022-10-17T10:41:02.236Z,9.73
2022-10-17T10:43:29.531Z,8.90
2022-10-17T10:45:56.887Z,8.93
2022-10-17T10:48:25.674Z,9.82
2022-10-17T10:50:56.071Z,8.45
2022-10-17T10:53:42.247Z,9.70
2022-10-17T10:56:19.303Z,8.20
2022-10-17T10:58:59.215Z,9.05
2022-10-17T11:01:38.739Z,9.52
2022-10-17T11:04:09.212Z,8.90
2022-10-17T11:06:37.991Z,9.30
2022-10-17T11:09:11.117Z,10.18
2022-10-17T11:11:41.271Z,9.60
2022-10-17T11:14:35.043Z,8.68
2022-10-17T11:17:22.982Z,12.32
2022-10-17T11:19:57.181Z,9.90
2022-10-17T11:22:29.265Z,9.90
2022-10-17T11:25:01.764Z,10.70
2022-10-17T11:27:29.909Z,9.48
2022-10-17T11:29:58.173Z,9.85
2022-10-17T11:32:25.537Z,9.85
2022-10-17T11:34:55.450Z,9.88
2022-10-17T11:37:25.710Z,10.85
2022-10-17T11:39:59.156Z,10.73
2022-10-17T11:42:47.628Z,11.65
2022-10-17T11:45:16.639Z,9.55
2022-10-17T11:47:49.018Z,9.25
2022-10-17T11:53:17.608Z,9.80
2022-10-17T11:55:45.295Z,8.73
2022-10-17T11:58:12.729Z,10.38
2022-10-17T12:00:58.856Z,10.75
2022-10-17T12:03:41.440Z,10.60
2022-10-17T12:06:08.863Z,11.15
2022-10-17T12:08:39.887Z,11.75
2022-10-17T12:11:16.440Z,11.80
2022-10-17T12:13:46.881Z,9.80
2022-10-17T12:16:20.365Z,9.13
2022-10-17T12:19:06.288Z,11.20
2022-10-17T12:21:52.606Z,10.63
2022-10-17T12:24:38.817Z,11.73
2022-10-17T12:27:24.976Z,9.32
2022-10-17T12:29:59.222Z,9.93
2022-10-17T12:32:30.251Z,11.13
2022-10-17T12:35:04.261Z,9.98
2022-10-17T12:37:43.517Z,9.88
2022-10-17T12:40:29.642Z,12.40
2022-10-17T12:42:57.013Z,11.43
2022-10-17T12:45:43.110Z,11.77
2022-10-17T12:48:10.880Z,11.68
2022-10-17T12:51:12.179Z,11.13
2022-10-17T12:53:47.382Z,12.68
2022-10-17T12:56:15.746Z,13.57
2022-10-17T12:58:47.594Z,10.88
2022-10-17T13:01:24.294Z,10.15
2022-10-17T13:03:53.295Z,11.27
2022-10-17T13:06:22.641Z,10.30
2022-10-17T13:08:56.151Z,11.15
2022-10-17T13:11:26.705Z,10.80
2022-10-17T13:13:55.397Z,10.40
2022-10-17T13:16:29.864Z,10.15
2022-10-17T13:18:57.512Z,10.65
2022-10-17T13:21:25.447Z,12.65
2022-10-17T13:23:54.602Z,11.25
2022-10-17T13:26:24.033Z,11.05
2022-10-17T13:29:05.293Z,12.30
2022-10-17T13:31:33.896Z,11.93
2022-10-17T13:34:02.779Z,11.75
2022-10-17T13:36:30.973Z,12.05
2022-10-17T13:39:00.651Z,10.77
2022-10-17T13:41:35.947Z,10.73
2022-10-17T13:44:05.175Z,11.60
2022-10-17T13:46:38.260Z,10.98
2022-10-17T13:49:10.968Z,10.13
2022-10-17T13:51:38.351Z,12.60
2022-10-17T13:54:18.468Z,11.18
2022-10-17T13:56:45.850Z,10.52
2022-10-17T13:59:34.988Z,10.07
2022-10-17T14:02:02.654Z,13.13
2022-10-17T14:04:40.088Z,10.80
2022-10-17T14:07:23.023Z,11.75
2022-10-17T14:09:50.648Z,11.18
2022-10-17T14:12:19.589Z,11.82
2022-10-17T14:15:09.690Z,11.13
2022-10-17T14:17:38.719Z,13.13
2022-10-17T14:20:40.786Z,11.73
2022-10-17T14:23:20.794Z,13.00
2022-10-17T14:25:43.574Z,10.73
2022-10-17T14:28:15.087Z,10.63
2022-10-17T14:30:59.103Z,12.07
2022-10-17T14:33:30.949Z,10.00
2022-10-17T14:35:59.453Z,11.43
2022-10-17T14:38:27.466Z,10.00
2022-10-17T14:41:37.759Z,11.68
2022-10-17T14:44:01.855Z,10.95
2022-10-17T14:46:29.553Z,11.43
2022-10-17T14:48:59.625Z,10.52
2022-10-17T14:51:30.093Z,10.30
2022-10-17T14:54:18.636Z,11.95
2022-10-17T14:56:51.378Z,10.57
2022-10-17T14:59:51.436Z,10.30
2022-10-17T15:02:10.079Z,9.80
2022-10-17T15:04:37.411Z,11.05
2022-10-17T15:07:04.734Z,9.75
2022-10-17T15:09:32.090Z,10.40
2022-10-17T15:12:03.456Z,9.02
2022-10-17T15:14:30.917Z,11.10
2022-10-17T15:16:58.276Z,9.85
2022-10-17T15:19:25.652Z,10.75
2022-10-17T15:21:53.125Z,9.82
2022-10-17T15:24:20.556Z,9.85
2022-10-17T15:26:49.472Z,9.20
2022-10-17T15:29:16.920Z,10.20
2022-10-17T15:31:44.348Z,10.98
2022-10-17T15:34:11.745Z,10.45
2022-10-17T15:36:42.435Z,11.48
2022-10-17T15:39:10.797Z,10.15
2022-10-17T15:41:38.191Z,9.68
2022-10-17T15:44:05.652Z,8.90
2022-10-17T15:46:34.938Z,8.27
2022-10-17T15:49:03.506Z,8.65
2022-10-17T15:51:30.908Z,8.73
2022-10-17T15:54:01.806Z,10.45
2022-10-17T15:56:30.579Z,8.85
2022-10-17T15:58:58.191Z,11.18
2022-10-17T16:01:27.154Z,9.02
2022-10-17T16:03:54.767Z,8.40
2022-10-17T16:06:22.637Z,9.43
2022-10-17T16:08:50.524Z,8.63
2022-10-17T16:11:23.733Z,9.55
2022-10-17T16:13:53.165Z,10.85
2022-10-17T16:16:22.200Z,10.23
2022-10-17T16:18:50.019Z,10.85
2022-10-17T16:21:17.889Z,10.68
2022-10-17T16:23:45.905Z,9.63
2022-10-17T16:26:15.987Z,10.25
2022-10-17T16:28:46.199Z,8.70
2022-10-17T16:31:19.683Z,8.32
2022-10-17T16:33:47.673Z,8.80
2022-10-17T16:36:15.136Z,8.82
2022-10-17T16:38:42.497Z,10.35
2022-10-17T16:41:22.031Z,9.18
2022-10-17T16:43:50.167Z,11.07
2022-10-17T16:46:17.666Z,10.57
2022-10-17T16:48:45.981Z,10.50
2022-10-17T16:51:13.903Z,9.15
2022-10-17T16:53:43.964Z,11.57
2022-10-17T16:56:12.743Z,10.05
2022-10-17T16:58:40.884Z,12.15
2022-10-17T17:01:13.352Z,9.88
2022-10-17T17:03:42.096Z,10.15
2022-10-17T17:06:12.257Z,9.68
2022-10-17T17:08:39.869Z,12.60
2022-10-17T17:11:08.083Z,10.15
2022-10-17T17:13:35.561Z,9.80
2022-10-17T17:16:07.045Z,11.27
2022-10-17T17:18:34.838Z,10.95
2022-10-17T17:21:02.808Z,9.48
2022-10-17T17:23:30.645Z,9.77
2022-10-17T17:25:59.125Z,11.10
2022-10-17T17:28:26.749Z,12.20
2022-10-17T17:30:54.657Z,11.05
2022-10-17T17:33:22.926Z,12.15
2022-10-17T17:35:55.264Z,10.63
2022-10-17T17:38:22.796Z,12.82
2022-10-17T17:40:51.144Z,9.73
2022-10-17T17:43:19.392Z,9.30
2022-10-17T17:45:47.108Z,11.23
2022-10-17T17:48:14.905Z,11.07
2022-10-17T17:50:42.817Z,9.55
2022-10-17T17:53:11.994Z,10.27
2022-10-17T17:55:39.668Z,10.70
2022-10-17T17:58:08.257Z,10.57
2022-10-17T18:00:36.574Z,10.30
2022-10-17T18:03:04.053Z,9.75
2022-10-17T18:05:31.971Z,10.50
2022-10-17T18:07:59.374Z,10.82
2022-10-17T18:10:28.788Z,10.52
2022-10-17T18:12:56.197Z,9.82
2022-10-17T18:15:23.629Z,11.02
2022-10-17T18:17:51.088Z,9.57
2022-10-17T18:20:18.608Z,11.55
2022-10-17T18:22:46.055Z,11.57
2022-10-17T18:25:13.427Z,10.27
2022-10-17T18:27:40.837Z,11.35
2022-10-17T18:30:08.615Z,12.20
2022-10-17T18:32:36.013Z,10.20
2022-10-17T18:35:03.356Z,14.10
2022-10-17T18:37:30.751Z,10.18
2022-10-17T18:39:58.409Z,12.00
2022-10-17T18:42:25.846Z,14.82
2022-10-17T18:44:53.374Z,10.75
2022-10-17T18:47:20.798Z,9.90
2022-10-17T18:49:48.666Z,10.73
2022-10-17T18:52:16.176Z,11.05
2022-10-17T18:54:43.512Z,12.20
2022-10-17T18:57:10.859Z,10.77
2022-10-17T18:59:38.652Z,11.77
2022-10-17T19:02:06.755Z,11.73
2022-10-17T19:04:34.304Z,10.55
2022-10-17T19:07:01.656Z,9.85
2022-10-17T19:09:29.200Z,12.45
2022-10-17T19:11:58.189Z,9.90
2022-10-17T19:14:26.345Z,11.30
2022-10-17T19:16:53.827Z,11.35
2022-10-17T19:19:22.181Z,10.27
2022-10-17T19:21:50.090Z,11.90
2022-10-17T19:24:19.007Z,11.40
2022-10-17T19:26:47.095Z,12.23
2022-10-17T19:29:15.102Z,10.38
2022-10-17T19:31:42.658Z,11.20
2022-10-17T19:34:10.736Z,10.23
2022-10-17T19:36:38.278Z,10.23
2022-10-17T19:39:06.952Z,10.27
2022-10-17T19:41:35.453Z,12.60
2022-10-17T19:44:02.765Z,10.25
2022-10-17T19:46:33.898Z,12.10
2022-10-17T19:49:01.891Z,12.27
2022-10-17T19:51:29.594Z,13.13
2022-10-17T19:54:00.377Z,11.85
2022-10-17T19:56:28.582Z,10.52
2022-10-17T19:58:57.072Z,14.45
2022-10-17T20:01:25.899Z,12.40
2022-10-17T20:03:53.678Z,11.13
2022-10-17T20:06:21.235Z,10.18
2022-10-17T20:08:49.010Z,9.35
2022-10-17T20:11:23.512Z,11.80
2022-10-17T20:13:51.062Z,13.30
2022-10-17T20:16:22.739Z,10.73
2022-10-17T20:18:50.778Z,9.93
2022-10-17T20:21:20.494Z,10.93
2022-10-17T20:23:48.566Z,11.82
2022-10-17T20:26:33.199Z,11.35
2022-10-17T20:29:05.637Z,11.25
2022-10-17T20:31:33.026Z,9.63
2022-10-17T20:34:00.572Z,12.90
2022-10-17T20:36:28.044Z,10.82
2022-10-17T20:38:55.959Z,11.20
2022-10-17T20:41:23.582Z,10.75
2022-10-17T20:43:51.900Z,10.00
2022-10-17T20:46:35.218Z,12.30
2022-10-17T20:49:03.088Z,10.25
2022-10-17T20:51:30.550Z,9.63
2022-10-17T20:53:57.953Z,10.23
2022-10-17T20:56:29.336Z,11.57
2022-10-17T20:59:01.278Z,11.70
2022-10-17T21:01:29.317Z,12.00
2022-10-17T21:03:58.938Z,15.00
2022-10-17T21:06:28.385Z,10.00
2022-10-17T21:08:56.107Z,10.48
2022-10-17T21:11:25.013Z,9.57
2022-10-17T21:13:56.776Z,11.85
2022-10-17T21:16:24.502Z,10.68
2022-10-17T21:18:51.889Z,11.40
2022-10-17T21:21:20.592Z,10.68
2022-10-17T21:23:48.968Z,11.52
2022-10-17T21:26:16.740Z,10.63
2022-10-17T21:28:44.818Z,10.98
2022-10-17T21:31:12.367Z,11.00
2022-10-17T21:33:40.268Z,9.55
2022-10-17T21:36:08.038Z,11.80
2022-10-17T21:38:36.529Z,12.32
2022-10-17T21:41:04.918Z,12.25
2022-10-17T21:43:32.762Z,10.35
2022-10-17T21:46:06.994Z,10.27
2022-10-17T21:48:34.722Z,10.70
2022-10-17T21:51:04.049Z,10.13
2022-10-17T21:53:31.572Z,10.50
2022-10-17T21:56:02.295Z,11.98
2022-10-17T21:58:29.824Z,9.70
2022-10-17T22:01:09.272Z,11.15
2022-10-17T22:03:40.309Z,11.95
2022-10-17T22:06:37.615Z,13.18
2022-10-17T22:08:58.071Z,11.02
2022-10-17T22:11:27.143Z,11.55
2022-10-17T22:14:01.984Z,10.57
2022-10-17T22:16:29.502Z,10.05
2022-10-17T22:19:01.725Z,11.48
2022-10-17T22:21:32.495Z,13.90
2022-10-17T22:24:04.387Z,9.85
2022-10-17T22:26:32.730Z,10.98
2022-10-17T22:29:00.280Z,14.45
2022-10-17T22:31:27.656Z,10.05
2022-10-17T22:33:55.069Z,13.45
2022-10-17T22:36:22.433Z,11.15
2022-10-17T22:38:49.764Z,11.60
2022-10-17T22:41:17.339Z,13.50
2022-10-17T22:43:44.726Z,9.77
2022-10-17T22:46:13.901Z,11.05
2022-10-17T22:48:41.363Z,11.75
2022-10-17T22:51:09.049Z,10.50
2022-10-17T22:53:37.703Z,11.07
2022-10-17T22:56:08.810Z,10.38
2022-10-17T22:58:36.898Z,11.40
2022-10-17T23:01:06.710Z,10.40
2022-10-17T23:03:34.402Z,9.52
2022-10-17T23:06:02.296Z,10.10
2022-10-17T23:08:29.635Z,9.68
2022-10-17T23:10:57.097Z,11.80
2022-10-17T23:13:24.512Z,10.48
2022-10-17T23:15:55.260Z,10.82
2022-10-17T23:18:23.177Z,9.90
2022-10-17T23:20:50.909Z,11.35
2022-10-17T23:23:18.782Z,9.85
2022-10-17T23:25:46.693Z,11.00
2022-10-17T23:28:14.113Z,9.52
2022-10-17T23:30:41.546Z,10.90
2022-10-17T23:33:11.158Z,11.82
2022-10-17T23:35:38.601Z,10.15
2022-10-17T23:38:05.984Z,11.00
2022-10-17T23:40:34.892Z,13.77
2022-10-17T23:43:02.371Z,11.07
2022-10-17T23:45:33.410Z,9.88
2022-10-17T23:48:03.541Z,8.90
2022-10-17T23:50:30.934Z,11.02
2022-10-17T23:52:58.225Z,9.85
2022-10-17T23:55:25.629Z,9.57
2022-10-17T23:57:53.195Z,11.60
